Time;durP1;ratioP1;P1;durP2;ratioP2;P2;SDS_P1;SDS_P2;PMS_P1;PMS_P2;Temp;Humidity;BMP_temperature;BMP_pressure;BME280_temperature;BME280_humidity;BME280_pressure;Samples;Min_cycle;Max_cycle;Signal;HPM_P1;HPM_P2
2023/12/26 00:01:46;;;;;;;16.20;2.30;;;;;;;3.14;98.49;98258.90;109249;1257;68649;-60
2023/12/26 00:04:34;;;;;;;18.00;3.60;;;;;;;3.15;98.57;98262.01;109062;1257;72379;-59
2023/12/26 00:07:23;;;;;;;11.10;2.00;;;;;;;3.13;99.25;98259.58;109091;1257;59501;-61
2023/12/26 00:10:12;;;;;;;14.90;2.60;;;;;;;3.14;99.45;98260.89;109201;1258;60264;-61
2023/12/26 00:13:01;;;;;;;12.50;2.20;;;;;;;3.16;99.50;98271.95;109104;1256;72527;-61
2023/12/26 00:15:50;;;;;;;12.30;2.00;;;;;;;3.16;99.87;98274.39;109105;1261;67929;-60
2023/12/26 00:18:38;;;;;;;19.70;2.90;;;;;;;3.15;99.94;98266.20;109230;1257;72354;-60
2023/12/26 00:21:26;;;;;;;13.80;2.50;;;;;;;3.15;99.85;98262.35;109113;1257;57486;-60
2023/12/26 00:24:13;;;;;;;13.80;2.50;;;;;;;3.16;99.96;98262.26;109174;1261;59512;-62
2023/12/26 00:27:02;;;;;;;12.50;2.60;;;;;;;3.18;99.83;98266.00;109063;1257;73018;-61
2023/12/26 00:29:49;;;;;;;19.00;2.40;;;;;;;3.18;99.90;98257.41;109238;1256;67050;-61
2023/12/26 00:32:37;;;;;;;17.70;2.80;;;;;;;3.20;99.86;98259.20;109202;1257;72907;-62
2023/12/26 00:35:27;;;;;;;13.90;2.70;;;;;;;3.22;99.97;98262.21;109183;1257;57335;-61
2023/12/26 00:38:15;;;;;;;13.30;2.10;;;;;;;3.23;100.00;98268.77;109106;1257;60006;-60
2023/12/26 00:41:03;;;;;;;16.30;1.90;;;;;;;3.24;99.97;98259.61;109107;1257;72059;-61
2023/12/26 00:43:54;;;;;;;13.20;2.40;;;;;;;3.24;99.95;98251.63;109219;1257;66936;-61
2023/12/26 00:46:46;;;;;;;13.10;2.50;;;;;;;3.27;99.96;98256.02;109246;1257;73392;-60
2023/12/26 00:49:34;;;;;;;16.50;2.70;;;;;;;3.28;99.93;98261.77;109093;1257;57330;-62
2023/12/26 00:52:22;;;;;;;19.30;2.80;;;;;;;3.30;99.99;98264.23;109105;1262;60622;-59
2023/12/26 00:55:10;;;;;;;13.60;2.80;;;;;;;3.30;99.99;98269.09;109206;1257;73570;-59
2023/12/26 00:57:57;;;;;;;17.20;2.60;;;;;;;3.31;100.00;98269.90;109110;1257;68918;-60
2023/12/26 01:00:45;;;;;;;19.30;3.00;;;;;;;3.34;100.00;98282.82;109157;1257;72561;-61
2023/12/26 01:03:32;;;;;;;12.10;2.00;;;;;;;3.36;99.91;98291.59;109180;1257;57887;-61
2023/12/26 01:06:20;;;;;;;17.00;2.60;;;;;;;3.36;99.85;98290.55;109068;1257;59987;-62
2023/12/26 01:09:08;;;;;;;14.20;2.10;;;;;;;3.35;99.96;98293.77;109041;1257;73857;-60
2023/12/26 01:11:56;;;;;;;22.00;3.10;;;;;;;3.34;99.85;98292.80;109054;1257;66393;-60
2023/12/26 01:14:44;;;;;;;12.60;2.30;;;;;;;3.34;99.53;98296.11;109037;1257;70451;-60
2023/12/26 01:17:32;;;;;;;14.10;2.70;;;;;;;3.34;99.62;98286.88;109195;1257;57970;-60
2023/12/26 01:20:20;;;;;;;10.80;2.50;;;;;;;3.33;99.43;98274.48;109135;1257;58736;-59
2023/12/26 01:23:07;;;;;;;16.20;2.70;;;;;;;3.30;99.39;98277.70;109119;1257;74054;-60
2023/12/26 01:25:56;;;;;;;15.20;2.60;;;;;;;3.27;99.54;98276.90;109179;1257;67555;-60
2023/12/26 01:28:44;;;;;;;17.00;2.30;;;;;;;3.27;99.31;98282.84;109059;1257;71252;-60
2023/12/26 01:31:35;;;;;;;13.50;2.80;;;;;;;3.25;99.13;98282.61;109041;1257;57910;-61
2023/12/26 01:34:23;;;;;;;13.60;2.50;;;;;;;3.25;99.10;98288.95;109155;1257;59070;-60
2023/12/26 01:37:11;;;;;;;18.30;3.20;;;;;;;3.21;99.08;98290.78;109101;1258;71739;-60
2023/12/26 01:39:58;;;;;;;16.30;2.90;;;;;;;3.21;98.96;98288.37;109055;1257;68910;-61
2023/12/26 01:42:47;;;;;;;17.00;2.60;;;;;;;3.21;98.79;98286.05;109117;1257;71192;-62
2023/12/26 01:45:36;;;;;;;14.30;2.40;;;;;;;3.20;98.72;98276.85;109223;1257;57298;-63
2023/12/26 01:48:25;;;;;;;12.00;2.30;;;;;;;3.20;98.58;98275.31;109131;1257;61050;-61
2023/12/26 01:51:15;;;;;;;13.00;2.10;;;;;;;3.18;98.57;98270.01;108985;1257;70943;-61
2023/12/26 01:54:03;;;;;;;17.30;2.30;;;;;;;3.16;98.64;98270.71;109017;1258;68842;-60
2023/12/26 01:56:51;;;;;;;11.60;2.10;;;;;;;3.13;98.60;98269.13;109205;1257;72712;-61
2023/12/26 01:59:39;;;;;;;9.30;2.00;;;;;;;3.11;98.48;98273.86;109115;1257;57378;-60
2023/12/26 02:02:28;;;;;;;16.40;2.70;;;;;;;3.10;98.44;98278.17;109097;1257;60074;-61
2023/12/26 02:05:15;;;;;;;15.20;2.30;;;;;;;3.06;98.48;98276.33;109140;1257;73763;-61
2023/12/26 02:08:05;;;;;;;12.30;2.00;;;;;;;3.03;98.80;98276.55;108406;1257;1003193;-61
2023/12/26 02:11:05;;;;;;;16.10;2.50;;;;;;;3.00;98.78;98271.73;109083;1259;71604;-60
2023/12/26 02:13:53;;;;;;;13.40;2.60;;;;;;;3.03;98.66;98271.11;109167;1257;57279;-59
2023/12/26 02:16:43;;;;;;;14.80;2.60;;;;;;;3.02;98.64;98273.85;109133;1257;58949;-61
2023/12/26 02:19:31;;;;;;;13.10;2.00;;;;;;;3.01;98.60;98275.31;109090;1257;73719;-60
2023/12/26 02:22:20;;;;;;;17.00;2.20;;;;;;;3.00;98.77;98271.55;109194;1257;67761;-62
2023/12/26 02:25:12;;;;;;;11.90;2.10;;;;;;;2.98;98.53;98267.66;109147;1257;71526;-62
2023/12/26 02:28:01;;;;;;;16.70;2.70;;;;;;;2.97;98.69;98257.73;109159;1257;57191;-60
2023/12/26 02:30:51;;;;;;;16.50;2.60;;;;;;;2.97;98.56;98253.02;109080;1257;61572;-61
2023/12/26 02:33:39;;;;;;;14.40;2.30;;;;;;;2.96;98.84;98254.82;109036;1257;71496;-60
2023/12/26 02:36:27;;;;;;;11.40;2.00;;;;;;;2.98;98.69;98253.33;109128;1257;68920;-60
2023/12/26 02:39:15;;;;;;;13.50;2.20;;;;;;;3.00;98.54;98247.05;109227;1257;73849;-60
2023/12/26 02:42:03;;;;;;;13.80;2.10;;;;;;;3.01;98.47;98243.92;109202;1257;58334;-61
2023/12/26 02:44:51;;;;;;;19.10;2.90;;;;;;;3.01;98.38;98238.51;109158;1257;60217;-60
2023/12/26 02:47:39;;;;;;;18.90;2.50;;;;;;;3.01;98.41;98233.23;109160;1257;72988;-61
2023/12/26 02:50:26;;;;;;;10.50;1.70;;;;;;;3.01;98.48;98233.79;109139;1257;67892;-60
2023/12/26 02:53:14;;;;;;;18.30;2.60;;;;;;;3.01;98.23;98228.38;109133;1257;72566;-61
2023/12/26 02:56:02;;;;;;;13.00;2.20;;;;;;;3.03;98.13;98224.38;109147;1257;57701;-61
2023/12/26 02:58:50;;;;;;;13.50;2.10;;;;;;;3.04;98.09;98222.89;108365;1257;1002429;-61
2023/12/26 03:01:39;;;;;;;13.70;2.30;;;;;;;3.03;98.23;98223.81;109214;1256;71748;-61
2023/12/26 03:04:27;;;;;;;13.50;2.70;;;;;;;3.02;98.15;98221.96;109225;1257;67628;-61
2023/12/26 03:07:14;;;;;;;14.80;2.40;;;;;;;3.02;97.99;98222.11;109227;1257;72639;-61
2023/12/26 03:10:07;;;;;;;12.10;2.50;;;;;;;3.04;98.33;98214.27;109183;1257;58848;-63
2023/12/26 03:12:55;;;;;;;17.40;2.90;;;;;;;3.07;97.92;98208.12;109230;1257;59973;-61
2023/12/26 03:15:44;;;;;;;14.80;2.30;;;;;;;3.11;97.91;98205.70;109191;1257;73488;-61
2023/12/26 03:18:31;;;;;;;14.00;2.20;;;;;;;3.13;97.75;98206.96;109184;1257;66569;-61
2023/12/26 03:21:20;;;;;;;18.60;2.40;;;;;;;3.13;97.78;98203.65;106933;1257;1002456;-60
2023/12/26 03:24:08;;;;;;;12.10;2.30;;;;;;;3.12;97.84;98202.29;109065;1257;57585;-61
2023/12/26 03:26:56;;;;;;;14.10;2.30;;;;;;;3.12;97.77;98205.27;109040;1257;61202;-60
2023/12/26 03:29:43;;;;;;;19.80;3.20;;;;;;;3.15;97.58;98204.54;109242;1257;74083;-59
2023/12/26 03:32:31;;;;;;;10.50;2.20;;;;;;;3.16;97.40;98198.48;109191;1257;68802;-59
2023/12/26 03:35:19;;;;;;;14.60;2.60;;;;;;;3.14;97.48;98194.45;109197;1257;72676;-61
2023/12/26 03:38:07;;;;;;;14.40;2.20;;;;;;;3.12;97.58;98191.75;109207;1257;57395;-60
2023/12/26 03:40:55;;;;;;;18.20;2.60;;;;;;;3.11;97.80;98189.61;109153;1256;60048;-61
2023/12/26 03:43:42;;;;;;;17.50;2.20;;;;;;;3.12;97.80;98189.23;109084;1257;71681;-60
2023/12/26 03:46:30;;;;;;;15.30;2.30;;;;;;;3.12;97.76;98179.91;109174;1256;67738;-60
2023/12/26 03:49:18;;;;;;;13.10;2.40;;;;;;;3.14;97.93;98172.73;109209;1257;72600;-60
2023/12/26 03:52:06;;;;;;;13.60;2.40;;;;;;;3.15;98.03;98173.20;109207;1257;57403;-60
2023/12/26 03:54:56;;;;;;;10.80;2.60;;;;;;;3.14;97.85;98172.52;109107;1257;61329;-59
2023/12/26 03:57:44;;;;;;;14.40;2.70;;;;;;;3.14;97.98;98159.73;109219;1257;73999;-60
2023/12/26 04:00:33;;;;;;;11.00;2.00;;;;;;;3.16;97.78;98147.71;109187;1256;66504;-60
2023/12/26 04:03:20;;;;;;;16.10;2.60;;;;;;;3.16;97.80;98146.30;109131;1257;72537;-60
2023/12/26 04:06:08;;;;;;;16.30;2.40;;;;;;;3.14;97.79;98151.67;109186;1257;58350;-60
2023/12/26 04:08:56;;;;;;;16.30;2.80;;;;;;;3.14;97.74;98151.89;109028;1257;185866;-60
2023/12/26 04:11:44;;;;;;;13.30;2.30;;;;;;;3.16;98.09;98149.80;109142;1257;72800;-60
2023/12/26 04:14:32;;;;;;;16.10;2.50;;;;;;;3.14;97.76;98139.92;109175;1256;67847;-62
2023/12/26 04:17:21;;;;;;;12.50;2.30;;;;;;;3.15;98.11;98134.92;109216;1257;73869;-60
2023/12/26 04:20:09;;;;;;;15.70;2.30;;;;;;;3.14;98.17;98131.34;109117;1257;59507;-61
2023/12/26 04:22:56;;;;;;;13.40;2.50;;;;;;;3.12;98.27;98124.37;109106;1257;60360;-61
2023/12/26 04:25:45;;;;;;;12.30;2.20;;;;;;;3.11;98.02;98127.60;109106;1257;73878;-61
2023/12/26 04:28:33;;;;;;;14.40;3.10;;;;;;;3.10;98.24;98124.02;109123;1257;66648;-60
2023/12/26 04:31:21;;;;;;;20.20;3.00;;;;;;;3.07;98.47;98116.11;109140;1257;72530;-60
2023/12/26 04:34:09;;;;;;;14.60;2.40;;;;;;;3.09;98.23;98110.86;109069;1260;58137;-61
2023/12/26 04:36:57;;;;;;;12.20;2.60;;;;;;;3.05;98.69;98099.98;109149;1258;61280;-61
2023/12/26 04:39:45;;;;;;;12.20;2.60;;;;;;;3.11;99.28;98101.98;109155;1257;73827;-60
2023/12/26 04:42:33;;;;;;;14.20;2.60;;;;;;;3.09;99.84;98098.45;109230;1257;67984;-59
2023/12/26 04:45:20;;;;;;;13.00;3.00;;;;;;;3.06;99.95;98099.35;109213;1257;72409;-60
2023/12/26 04:48:09;;;;;;;13.60;2.90;;;;;;;3.05;100.00;98087.89;109128;1257;59759;-61
2023/12/26 04:50:57;;;;;;;10.60;2.50;;;;;;;3.02;100.00;98080.77;109228;1256;61329;-59
2023/12/26 04:53:49;;;;;;;14.60;2.40;;;;;;;3.01;100.00;98076.29;109100;1257;72796;-61
2023/12/26 04:56:39;;;;;;;15.30;2.20;;;;;;;3.00;100.00;98072.50;109173;1257;67750;-60
2023/12/26 04:59:27;;;;;;;13.80;2.50;;;;;;;2.97;100.00;98072.75;109213;1256;71210;-60
2023/12/26 05:02:16;;;;;;;17.30;2.90;;;;;;;2.94;100.00;98064.62;109171;1257;57314;-60
2023/12/26 05:05:04;;;;;;;8.60;2.10;;;;;;;2.89;100.00;98054.73;109150;1257;60010;-60
2023/12/26 05:07:51;;;;;;;11.60;2.10;;;;;;;2.84;100.00;98059.19;109142;1257;73538;-60
2023/12/26 05:10:39;;;;;;;9.50;2.10;;;;;;;2.80;100.00;98059.52;109090;1257;68928;-60
2023/12/26 05:13:27;;;;;;;12.80;2.10;;;;;;;2.77;100.00;98052.02;109105;1257;72416;-60
2023/12/26 05:16:18;;;;;;;11.80;2.20;;;;;;;2.73;100.00;98049.00;109157;1257;57261;-60
2023/12/26 05:19:07;;;;;;;11.60;2.30;;;;;;;2.66;100.00;98043.77;109035;1257;59012;-62
2023/12/26 05:21:55;;;;;;;12.60;2.00;;;;;;;2.61;100.00;98045.18;109094;1257;71717;-60
2023/12/26 05:24:44;;;;;;;10.00;1.90;;;;;;;2.58;100.00;98037.39;109132;1257;66784;-62
2023/12/26 05:27:40;;;;;;;15.50;2.90;;;;;;;2.58;100.00;98031.33;109079;1257;71081;-62
2023/12/26 05:30:27;;;;;;;11.50;2.30;;;;;;;2.55;100.00;98015.86;109144;1256;57724;-61
2023/12/26 05:33:16;;;;;;;11.90;2.50;;;;;;;2.54;100.00;98005.63;109085;1256;60023;-60
2023/12/26 05:36:04;;;;;;;17.20;2.70;;;;;;;2.53;100.00;97999.77;109096;1257;71437;-62
2023/12/26 05:38:52;;;;;;;14.30;2.60;;;;;;;2.53;100.00;97995.91;109093;1256;69164;-63
2023/12/26 05:41:42;;;;;;;15.70;2.10;;;;;;;2.53;100.00;97995.94;109110;1257;71405;-62
2023/12/26 05:44:30;;;;;;;14.20;2.50;;;;;;;2.50;100.00;97992.98;109031;1257;57423;-61
2023/12/26 05:47:20;;;;;;;14.90;2.50;;;;;;;2.52;100.00;97996.55;109115;1256;60396;-62
2023/12/26 05:50:09;;;;;;;12.60;2.30;;;;;;;2.51;100.00;97979.77;109112;1257;73704;-60
2023/12/26 05:52:57;;;;;;;14.50;2.60;;;;;;;2.50;100.00;97973.40;109008;1257;66795;-60
2023/12/26 05:55:45;;;;;;;11.70;2.70;;;;;;;2.45;100.00;97970.98;109140;1257;72781;-60
2023/12/26 05:58:32;;;;;;;13.90;3.00;;;;;;;2.43;100.00;97970.44;109075;1257;57322;-61
2023/12/26 06:01:20;;;;;;;12.60;2.70;;;;;;;2.43;100.00;97960.46;109100;1257;58280;-60
2023/12/26 06:04:07;;;;;;;12.60;2.40;;;;;;;2.42;100.00;97947.98;109139;1257;72366;-63
2023/12/26 06:06:56;;;;;;;7.70;2.20;;;;;;;2.41;100.00;97942.58;109091;1257;67620;-60
2023/12/26 06:09:43;;;;;;;9.80;2.10;;;;;;;2.40;100.00;97937.43;109118;1257;72502;-60
2023/12/26 06:12:31;;;;;;;10.80;2.00;;;;;;;2.37;100.00;97927.45;109062;1257;58555;-60
2023/12/26 06:15:19;;;;;;;8.50;2.30;;;;;;;2.37;100.00;97921.23;109117;1257;59933;-62
2023/12/26 06:18:06;;;;;;;11.80;2.30;;;;;;;2.38;100.00;97925.30;109057;1257;70834;-62
2023/12/26 06:20:54;;;;;;;10.20;2.40;;;;;;;2.40;100.00;97932.40;109106;1257;68014;-59
2023/12/26 06:23:42;;;;;;;11.00;2.80;;;;;;;2.38;100.00;97925.88;109041;1257;72797;-62
2023/12/26 06:26:31;;;;;;;10.80;2.80;;;;;;;2.39;100.00;97910.89;109112;1256;57649;-62
2023/12/26 06:29:19;;;;;;;9.80;2.30;;;;;;;2.40;100.00;97905.98;109063;1257;61827;-61
2023/12/26 06:32:08;;;;;;;12.30;2.40;;;;;;;2.38;100.00;97901.86;109085;1257;72755;-62
2023/12/26 06:34:55;;;;;;;10.70;2.30;;;;;;;2.39;100.00;97892.00;109021;1257;65438;-63
2023/12/26 06:37:43;;;;;;;9.20;2.40;;;;;;;2.39;100.00;97888.67;109138;1257;72531;-62
2023/12/26 06:40:32;;;;;;;11.00;2.20;;;;;;;2.40;100.00;97890.73;108981;1257;58727;-61
2023/12/26 06:43:20;;;;;;;11.60;2.60;;;;;;;2.41;100.00;97879.42;109116;1257;58945;-61
2023/12/26 06:46:07;;;;;;;9.90;2.30;;;;;;;2.44;100.00;97875.48;109067;1257;73852;-61
2023/12/26 06:48:57;;;;;;;9.60;2.20;;;;;;;2.46;100.00;97868.15;109082;1260;69383;-60
2023/12/26 06:51:46;;;;;;;11.70;2.50;;;;;;;2.48;100.00;97869.05;109102;1257;73643;-62
2023/12/26 06:54:34;;;;;;;9.20;2.40;;;;;;;2.49;100.00;97865.95;109131;1257;58646;-63
2023/12/26 06:57:21;;;;;;;10.10;2.60;;;;;;;2.54;100.00;97864.95;109133;1257;61124;-60
2023/12/26 07:00:09;;;;;;;12.50;2.30;;;;;;;2.55;100.00;97859.44;109172;1257;72840;-62
2023/12/26 07:02:58;;;;;;;9.90;2.40;;;;;;;2.58;100.00;97863.89;109047;1257;67803;-62
2023/12/26 07:05:47;;;;;;;10.30;2.50;;;;;;;2.62;100.00;97851.81;109065;1257;73653;-60
2023/12/26 07:08:35;;;;;;;7.90;2.40;;;;;;;2.66;100.00;97850.49;108907;1260;58913;-61
2023/12/26 07:11:22;;;;;;;8.50;2.40;;;;;;;2.70;100.00;97855.23;108989;1259;61468;-62
2023/12/26 07:14:10;;;;;;;9.20;2.20;;;;;;;2.73;100.00;97855.63;108958;1259;72969;-63
2023/12/26 07:16:58;;;;;;;9.20;2.10;;;;;;;2.79;100.00;97850.45;108964;1260;66833;-62
2023/12/26 07:19:46;;;;;;;8.00;2.10;;;;;;;2.85;100.00;97846.31;108940;1259;71742;-62
2023/12/26 07:22:34;;;;;;;7.50;2.30;;;;;;;2.92;100.00;97837.35;108894;1260;59913;-63
2023/12/26 07:25:22;;;;;;;7.90;2.60;;;;;;;2.97;100.00;97837.79;108853;1260;60318;-61
2023/12/26 07:28:14;;;;;;;8.50;2.00;;;;;;;3.03;100.00;97838.02;108962;1259;71813;-62
2023/12/26 07:31:03;;;;;;;7.70;2.50;;;;;;;3.09;100.00;97834.19;108976;1259;66567;-62
2023/12/26 07:33:51;;;;;;;6.40;1.80;;;;;;;3.14;100.00;97829.39;108951;1260;72442;-65
2023/12/26 07:36:39;;;;;;;8.50;3.00;;;;;;;3.20;100.00;97828.77;108930;1260;57389;-63
2023/12/26 07:39:27;;;;;;;8.00;2.10;;;;;;;3.26;100.00;97817.26;109038;1257;58859;-63
2023/12/26 07:42:17;;;;;;;6.80;1.90;;;;;;;3.30;100.00;97817.80;109192;1257;73059;-63
2023/12/26 07:45:05;;;;;;;6.30;2.10;;;;;;;3.34;100.00;97817.43;109196;1257;66943;-61
2023/12/26 07:47:54;;;;;;;7.70;2.10;;;;;;;3.38;100.00;97813.05;109141;1257;71266;-61
2023/12/26 07:50:42;;;;;;;6.20;1.80;;;;;;;3.44;100.00;97806.48;109132;1257;59879;-63
2023/12/26 07:53:30;;;;;;;6.30;2.30;;;;;;;3.49;100.00;97810.94;109250;1257;58046;-62
2023/12/26 07:56:18;;;;;;;6.40;2.00;;;;;;;3.55;100.00;97809.89;109140;1257;71434;-62
2023/12/26 07:59:06;;;;;;;6.50;2.00;;;;;;;3.61;100.00;97812.50;109121;1257;67541;-64
2023/12/26 08:01:53;;;;;;;6.70;2.10;;;;;;;3.68;100.00;97813.53;109009;1257;70479;-61
2023/12/26 08:04:40;;;;;;;6.30;2.30;;;;;;;3.75;100.00;97806.42;109070;1257;58802;-60
2023/12/26 08:07:29;;;;;;;7.00;2.10;;;;;;;3.82;100.00;97805.30;109182;1257;60312;-64
2023/12/26 08:10:17;;;;;;;8.20;2.40;;;;;;;3.90;100.00;97803.25;109117;1257;72950;-61
2023/12/26 08:13:05;;;;;;;6.50;2.40;;;;;;;3.98;100.00;97798.64;109138;1257;67585;-62
2023/12/26 08:15:52;;;;;;;6.80;2.20;;;;;;;4.05;100.00;97798.21;109196;1257;72472;-61
2023/12/26 08:18:40;;;;;;;7.50;2.20;;;;;;;4.13;100.00;97796.03;109114;1257;60812;-59
2023/12/26 08:21:28;;;;;;;5.90;2.20;;;;;;;4.19;100.00;97805.66;109185;1257;58769;-61
2023/12/26 08:24:15;;;;;;;7.20;2.30;;;;;;;4.26;100.00;97811.53;109128;1257;73059;-63
2023/12/26 08:27:03;;;;;;;6.30;2.10;;;;;;;4.33;100.00;97817.21;109094;1257;67957;-61
2023/12/26 08:29:51;;;;;;;6.50;2.10;;;;;;;4.41;100.00;97810.58;109067;1257;73034;-63
2023/12/26 08:32:39;;;;;;;6.40;2.40;;;;;;;4.50;100.00;97805.04;109143;1257;59585;-63
2023/12/26 08:35:27;;;;;;;5.80;2.20;;;;;;;4.60;100.00;97798.05;108995;1257;61040;-62
2023/12/26 08:38:15;;;;;;;5.60;1.90;;;;;;;4.72;100.00;97796.06;108969;1257;72569;-61
2023/12/26 08:41:05;;;;;;;7.40;2.10;;;;;;;4.84;100.00;97793.04;109118;1257;67585;-62
2023/12/26 08:43:53;;;;;;;7.00;1.90;;;;;;;4.98;100.00;97786.05;109095;1257;73780;-64
2023/12/26 08:46:41;;;;;;;6.70;2.20;;;;;;;5.08;100.00;97782.77;109144;1256;59202;-63
2023/12/26 08:49:29;;;;;;;6.60;2.00;;;;;;;5.23;100.00;97789.75;109208;1257;60101;-62
2023/12/26 08:52:16;;;;;;;7.60;2.10;;;;;;;5.39;100.00;97794.03;109202;1257;74042;-61
2023/12/26 08:55:04;;;;;;;9.10;2.10;;;;;;;5.54;100.00;97799.05;109193;1257;68952;-63
2023/12/26 08:57:52;;;;;;;6.30;1.70;;;;;;;5.69;100.00;97797.06;109079;1257;72801;-62
2023/12/26 09:00:44;;;;;;;6.50;2.30;;;;;;;5.80;100.00;97800.97;109105;1257;60585;-62
2023/12/26 09:03:32;;;;;;;6.90;2.50;;;;;;;5.84;100.00;97814.86;109050;1257;60445;-62
2023/12/26 09:06:19;;;;;;;6.90;2.70;;;;;;;5.89;100.00;97826.16;109153;1257;72957;-61
2023/12/26 09:09:08;;;;;;;6.80;2.40;;;;;;;5.94;100.00;97834.54;109144;1257;67812;-61
2023/12/26 09:11:56;;;;;;;8.00;2.40;;;;;;;5.96;100.00;97846.97;109049;1257;71450;-61
2023/12/26 09:14:44;;;;;;;6.90;2.60;;;;;;;5.99;100.00;97855.42;109164;1257;59890;-66
2023/12/26 09:17:31;;;;;;;9.50;2.70;;;;;;;6.01;100.00;97851.20;109084;1257;59067;-62
2023/12/26 09:20:19;;;;;;;6.50;1.60;;;;;;;6.03;100.00;97838.33;108467;1257;1002278;-62
2023/12/26 09:23:07;;;;;;;6.00;1.80;;;;;;;6.00;100.00;97834.53;108951;1257;68637;-61
2023/12/26 09:25:54;;;;;;;6.00;2.00;;;;;;;6.03;100.00;97837.08;109210;1256;72628;-64
2023/12/26 09:28:43;;;;;;;5.50;1.60;;;;;;;6.04;100.00;97843.48;109085;1256;58312;-61
2023/12/26 09:31:31;;;;;;;6.00;1.70;;;;;;;6.03;100.00;97841.96;109047;1257;61508;-61
2023/12/26 09:34:18;;;;;;;5.60;2.00;;;;;;;6.03;100.00;97842.19;107698;1257;1002910;-62
2023/12/26 09:37:06;;;;;;;5.40;1.60;;;;;;;6.08;100.00;97840.27;109221;1256;66546;-61
2023/12/26 09:39:54;;;;;;;5.50;1.50;;;;;;;6.10;100.00;97833.02;109201;1256;72480;-61
2023/12/26 09:42:41;;;;;;;6.90;1.70;;;;;;;6.14;100.00;97837.78;109078;1256;59652;-61
2023/12/26 09:45:33;;;;;;;7.30;2.20;;;;;;;6.17;100.00;97845.66;109236;1255;60103;-61
2023/12/26 09:48:21;;;;;;;6.60;1.70;;;;;;;6.19;100.00;97837.70;109054;1256;73828;-62
2023/12/26 09:51:14;;;;;;;7.10;1.80;;;;;;;6.23;100.00;97838.88;109224;1256;67646;-61
2023/12/26 09:54:04;;;;;;;7.30;1.80;;;;;;;6.21;100.00;97843.62;109035;1257;72785;-61
2023/12/26 09:56:51;;;;;;;6.10;1.90;;;;;;;6.21;100.00;97843.11;109020;1257;60637;-62
2023/12/26 09:59:40;;;;;;;7.80;1.90;;;;;;;6.23;100.00;97846.09;109188;1257;58946;-61
2023/12/26 10:02:28;;;;;;;8.30;2.00;;;;;;;6.25;100.00;97839.00;109099;1257;73346;-62
2023/12/26 10:05:15;;;;;;;8.70;2.10;;;;;;;6.36;100.00;97843.42;109197;1256;67771;-62
2023/12/26 10:08:04;;;;;;;8.10;2.50;;;;;;;6.52;100.00;97843.48;109193;1256;72373;-60
2023/12/26 10:10:51;;;;;;;8.10;2.10;;;;;;;6.70;100.00;97845.36;109074;1256;59611;-62
2023/12/26 10:13:49;;;;;;;9.70;2.20;;;;;;;6.77;100.00;97839.33;109089;1256;60230;-61
2023/12/26 10:16:37;;;;;;;9.10;2.10;;;;;;;6.78;100.00;97833.79;109073;1257;74223;-61
2023/12/26 10:19:25;;;;;;;9.30;1.70;;;;;;;6.77;100.00;97829.46;109167;1256;67949;-65
2023/12/26 10:22:13;;;;;;;8.50;2.10;;;;;;;6.76;100.00;97831.55;109108;1256;72425;-62
2023/12/26 10:25:02;;;;;;;8.50;2.40;;;;;;;6.75;100.00;97849.75;109082;1257;58631;-61
2023/12/26 10:27:58;;;;;;;10.50;2.60;;;;;;;6.74;100.00;97843.85;109217;1256;60016;-61
2023/12/26 10:30:45;;;;;;;10.60;2.10;;;;;;;6.73;100.00;97848.15;109196;1257;74121;-61
2023/12/26 10:33:34;;;;;;;8.10;2.20;;;;;;;6.69;100.00;97854.44;109113;1257;68821;-61
2023/12/26 10:36:22;;;;;;;9.30;2.00;;;;;;;6.65;100.00;97845.22;109201;1257;72616;-62
2023/12/26 10:39:11;;;;;;;10.10;2.20;;;;;;;6.64;100.00;97852.18;109162;1257;59588;-62
2023/12/26 10:42:01;;;;;;;8.10;2.20;;;;;;;6.65;100.00;97845.25;109083;1257;59038;-63
2023/12/26 10:44:49;;;;;;;9.00;2.00;;;;;;;6.64;100.00;97853.86;109121;1257;73175;-63
2023/12/26 10:47:44;;;;;;;7.50;1.80;;;;;;;6.62;100.00;97851.33;108471;1257;1002299;-62
2023/12/26 10:50:32;;;;;;;6.30;1.60;;;;;;;6.62;100.00;97846.05;109026;1257;72808;-62
2023/12/26 10:53:23;;;;;;;7.10;1.70;;;;;;;6.62;100.00;97857.64;108973;1257;58267;-61
2023/12/26 10:56:14;;;;;;;7.60;1.80;;;;;;;6.64;100.00;97844.50;108918;1257;60017;-63
2023/12/26 10:59:03;;;;;;;11.20;1.90;;;;;;;6.62;100.00;97839.34;109052;1259;71706;-66
2023/12/26 11:01:51;;;;;;;7.50;2.00;;;;;;;6.68;100.00;97849.08;109181;1255;67174;-62
2023/12/26 11:04:45;;;;;;;9.10;1.60;;;;;;;6.70;100.00;97841.08;109146;1257;71204;-61
2023/12/26 11:07:32;;;;;;;7.30;1.40;;;;;;;6.70;99.85;97843.02;109163;1256;60521;-64
2023/12/26 11:10:20;;;;;;;8.60;1.80;;;;;;;6.68;99.70;97844.64;109087;1257;61340;-62
2023/12/26 11:13:08;;;;;;;8.40;1.70;;;;;;;6.68;99.78;97846.39;109015;1257;72221;-63
2023/12/26 11:15:56;;;;;;;9.70;1.50;;;;;;;6.68;100.00;97856.79;109175;1257;69102;-62
2023/12/26 11:18:45;;;;;;;6.00;1.50;;;;;;;6.60;100.00;97852.57;109137;1257;72446;-61
2023/12/26 11:21:34;;;;;;;7.70;1.40;;;;;;;6.53;100.00;97860.67;109134;1257;57750;-60
2023/12/26 11:24:21;;;;;;;6.40;1.50;;;;;;;6.51;100.00;97856.02;109144;1256;61954;-62
2023/12/26 11:27:09;;;;;;;9.00;1.30;;;;;;;6.44;100.00;97844.61;109201;1257;72722;-60
2023/12/26 11:29:57;;;;;;;5.70;1.40;;;;;;;6.39;100.00;97844.75;109164;1257;65755;-62
2023/12/26 11:32:45;;;;;;;6.20;1.40;;;;;;;6.40;100.00;97848.73;109152;1256;71444;-61
2023/12/26 11:35:33;;;;;;;7.60;1.70;;;;;;;6.43;100.00;97853.91;109065;1258;60810;-63
2023/12/26 11:38:21;;;;;;;7.30;2.40;;;;;;;6.44;100.00;97849.16;109174;1256;61034;-62
2023/12/26 11:41:11;;;;;;;8.00;1.70;;;;;;;6.45;100.00;97848.01;109053;1257;73084;-61
2023/12/26 11:43:59;;;;;;;6.30;1.50;;;;;;;6.49;100.00;97856.10;109086;1257;67841;-62
2023/12/26 11:46:47;;;;;;;7.30;1.60;;;;;;;6.54;100.00;97854.08;109160;1255;73000;-61
2023/12/26 11:49:35;;;;;;;7.40;1.70;;;;;;;6.59;100.00;97846.59;109166;1257;57956;-62
2023/12/26 11:52:23;;;;;;;7.50;1.80;;;;;;;6.57;100.00;97848.02;109164;1256;60332;-62
2023/12/26 11:55:10;;;;;;;7.70;1.60;;;;;;;6.56;100.00;97843.89;109213;1257;71543;-60
2023/12/26 11:57:58;;;;;;;7.70;1.90;;;;;;;6.53;100.00;97849.23;109209;1257;68752;-63
2023/12/26 12:00:46;;;;;;;7.40;1.50;;;;;;;6.49;100.00;97851.96;109159;1257;72315;-63
2023/12/26 12:03:34;;;;;;;8.20;1.90;;;;;;;6.38;100.00;97858.04;109147;1257;58123;-61
2023/12/26 12:06:22;;;;;;;8.70;1.80;;;;;;;6.29;100.00;97851.89;109169;1256;60116;-61
2023/12/26 12:09:16;;;;;;;9.60;1.50;;;;;;;6.20;100.00;97851.15;109185;1257;72839;-61
2023/12/26 12:12:04;;;;;;;6.70;1.80;;;;;;;6.14;100.00;97857.36;109045;1257;67651;-61
2023/12/26 12:14:54;;;;;;;8.20;1.50;;;;;;;6.08;100.00;97861.20;109122;1257;72720;-63
2023/12/26 12:17:45;;;;;;;8.40;1.90;;;;;;;6.10;100.00;97859.31;108978;1257;57293;-61
2023/12/26 12:20:33;;;;;;;9.90;1.60;;;;;;;6.07;100.00;97863.05;109044;1257;60036;-61
2023/12/26 12:23:20;;;;;;;6.40;1.30;;;;;;;6.00;100.00;97868.15;109152;1257;72901;-62
2023/12/26 12:26:08;;;;;;;7.30;1.30;;;;;;;5.98;100.00;97864.81;109186;1257;66328;-61
2023/12/26 12:29:02;;;;;;;7.40;1.60;;;;;;;5.96;100.00;97873.81;109149;1257;72477;-61
2023/12/26 12:32:17;;;;;;;8.60;1.70;;;;;;;5.91;100.00;97879.13;109078;1257;57368;-60
2023/12/26 12:35:16;;;;;;;7.70;1.80;;;;;;;5.89;100.00;97878.98;108977;1257;60052;-62
2023/12/26 12:38:05;;;;;;;5.70;1.60;;;;;;;5.88;100.00;97889.80;108961;1257;72731;-63
2023/12/26 12:40:52;;;;;;;6.60;1.40;;;;;;;5.85;100.00;97898.73;109167;1257;66641;-61
2023/12/26 12:43:40;;;;;;;7.20;1.70;;;;;;;5.80;100.00;97912.36;107459;1257;1002490;-63
2023/12/26 12:46:27;;;;;;;7.70;2.00;;;;;;;5.76;100.00;97904.83;109107;1257;58345;-61
2023/12/26 12:49:15;;;;;;;9.20;2.30;;;;;;;5.72;100.00;97911.88;109047;1257;58454;-66
2023/12/26 12:52:06;;;;;;;11.00;2.20;;;;;;;5.68;100.00;97914.57;109072;1257;72769;-63
2023/12/26 12:54:53;;;;;;;9.70;2.20;;;;;;;5.64;100.00;97917.55;109071;1257;69000;-61
2023/12/26 12:57:41;;;;;;;9.10;1.90;;;;;;;5.60;100.00;97916.88;109086;1257;71093;-62
2023/12/26 13:00:30;;;;;;;8.20;2.10;;;;;;;5.56;100.00;97922.52;109038;1257;58164;-63
2023/12/26 13:03:18;;;;;;;11.90;2.20;;;;;;;5.50;100.00;97928.29;109035;1257;60394;-63